Wrangell, AK

12:14 PM AKDT on July 27, 2017 (GMT -0800)
Wrangell

Weather History for PAWG - August, 2012

Change the Weather History Date:

Tuesday, August 14, 2012

  Actual Average Record
Temperature  
Mean Temperature 55 °F -  
Max Temperature 62 °F 62 °F 78 °F (1977)
Min Temperature 48 °F 47 °F 0 °F (1983)
Degree Days  
Heating Degree Days 10    
Growing Degree Days 5 (Base 50)    
Moisture  
Dew Point 50 °F    
Average Humidity 83    
Maximum Humidity 94    
Minimum Humidity 68    
Precipitation  
Precipitation 0.00 in - - ()
Sea Level Pressure  
Sea Level Pressure 30.17 in    
Wind  
Wind Speed 3 mph (NNW)    
Max Wind Speed 7 mph    
Max Gust Speed -    
Visibility 10 miles    
Events      
Averages and records for this station are not official NWS values.
T = Trace of Precipitation, MM = Missing Value Source: NWS Daily Summary

Daily Weather History Graph

Daily Weather History Graph

Search for Another Location

Airport or City:

Trip Planner

Search our weather history database for the weather conditions in past years. The results will help you decide how hot, cold, wet, or windy it might be!

Date:

Astronomy

Aug. 14, 2012 Rise Set
Actual Time 5:17 AM AKDT 8:28 PM AKDT
Civil Twilight 4:33 AM AKDT 9:12 PM AKDT
Nautical Twilight 3:33 AM AKDT 10:12 PM AKDT
Astronomical Twilight 2:00 AM AKDT 11:40 PM AKDT
Moon 2:03 AM AKDT (8/14) 6:41 PM AKDT (8/14)
Length of Visible Light 16h 39m
Length of Day
15h 10m
Waning Crescent, 9% of the Moon is Illuminated
Aug 14
Waning Crescent
Aug 17
New
Aug 24
First Quarter
Aug 31
Full
Sep 8
Last Quarter

Hourly Weather History & Observations

Time (AKDT) Temp. Dew Point Humidity Pressure Visibility Wind Dir Wind Speed Gust Speed Precip Events Conditions
12:16 AM 50.0 °F 46.4 °F 87% 30.06 in 10.0 mi Calm Calm - N/A   Overcast
12:36 AM 50.0 °F 46.4 °F 87% 30.06 in 10.0 mi West 5.8 mph - N/A   Overcast
12:56 AM 50.0 °F 46.4 °F 87% 30.07 in 10.0 mi WNW 3.5 mph - N/A   Overcast
1:16 AM 48.2 °F 46.4 °F 93% 30.08 in 10.0 mi WNW 6.9 mph - N/A   Overcast
1:36 AM 48.2 °F 46.4 °F 93% 30.08 in 10.0 mi NNW 3.5 mph - N/A   Mostly Cloudy
1:56 AM 48.2 °F 46.4 °F 93% 30.09 in 10.0 mi Calm Calm - N/A   Overcast
2:16 AM 48.2 °F 46.4 °F 93% 30.09 in 10.0 mi Calm Calm - N/A   Scattered Clouds
2:36 AM 48.2 °F 46.4 °F 93% 30.10 in 10.0 mi Calm Calm - N/A   Mostly Cloudy
2:56 AM 48.2 °F 46.4 °F 93% 30.11 in 10.0 mi NW 4.6 mph - N/A   Overcast
3:16 AM 50.0 °F 46.4 °F 87% 30.11 in 10.0 mi WNW 6.9 mph - N/A   Overcast
3:36 AM 48.2 °F 46.4 °F 93% 30.11 in 10.0 mi NW 3.5 mph - N/A   Mostly Cloudy
3:56 AM 48.2 °F 46.4 °F 93% 30.12 in 10.0 mi Calm Calm - N/A   Mostly Cloudy
4:16 AM 48.2 °F 46.4 °F 93% 30.12 in 10.0 mi WSW 3.5 mph - N/A   Overcast
4:36 AM 48.2 °F 46.4 °F 93% 30.13 in 10.0 mi WSW 4.6 mph - N/A   Overcast
4:56 AM 50.0 °F 46.4 °F 87% 30.12 in 10.0 mi SSW 4.6 mph - N/A   Overcast
5:16 AM 50.0 °F 46.4 °F 87% 30.13 in 10.0 mi WSW 3.5 mph - N/A   Overcast
5:36 AM 48.2 °F 46.4 °F 93% 30.14 in 10.0 mi Calm Calm - N/A   Overcast
5:56 AM 48.2 °F 46.4 °F 93% 30.15 in 10.0 mi Calm Calm - N/A   Overcast
6:16 AM 50.0 °F 46.4 °F 87% 30.15 in 10.0 mi ESE 4.6 mph - N/A   Overcast
6:36 AM 50.0 °F 46.4 °F 87% 30.15 in 10.0 mi SE 4.6 mph - N/A   Overcast
6:56 AM 50.0 °F 46.4 °F 87% 30.16 in 10.0 mi SE 4.6 mph - N/A   Overcast
7:16 AM 50.0 °F 46.4 °F 87% 30.17 in 10.0 mi Calm Calm - N/A   Overcast
7:22 AM 50.0 °F 46.4 °F 87% 30.17 in 10.0 mi Calm Calm - N/A   Overcast
7:36 AM 48.2 °F 46.4 °F 93% 30.18 in 10.0 mi Calm Calm - N/A   Overcast
7:56 AM 50.0 °F 46.4 °F 87% 30.19 in 10.0 mi SW 3.5 mph - N/A   Mostly Cloudy
8:16 AM 51.8 °F 48.2 °F 88% 30.19 in 10.0 mi NE 3.5 mph - N/A   Mostly Cloudy
8:36 AM 51.8 °F 48.2 °F 88% 30.18 in 10.0 mi East 3.5 mph - N/A   Mostly Cloudy
8:56 AM 51.8 °F 46.4 °F 82% 30.19 in 10.0 mi ESE 4.6 mph - N/A   Mostly Cloudy
9:16 AM 51.8 °F 46.4 °F 82% 30.19 in 10.0 mi Calm Calm - N/A   Mostly Cloudy
9:36 AM 51.8 °F 48.2 °F 88% 30.19 in 10.0 mi East 3.5 mph - N/A   Scattered Clouds
9:56 AM 53.6 °F 48.2 °F 82% 30.21 in 10.0 mi East 4.6 mph - N/A   Scattered Clouds
10:16 AM 53.6 °F 48.2 °F 82% 30.21 in 10.0 mi East 5.8 mph - N/A   Scattered Clouds
10:36 AM 53.6 °F 48.2 °F 82% 30.21 in 10.0 mi East 4.6 mph - N/A   Scattered Clouds
10:56 AM 53.6 °F 48.2 °F 82% 30.20 in 10.0 mi Calm Calm - N/A   Scattered Clouds
11:16 AM 53.6 °F 48.2 °F 82% 30.21 in 10.0 mi NNE 3.5 mph - N/A   Scattered Clouds
11:36 AM 53.6 °F 50.0 °F 88% 30.21 in 10.0 mi NE 3.5 mph - N/A   Scattered Clouds
11:56 AM 53.6 °F 50.0 °F 88% 30.22 in 10.0 mi Calm Calm - N/A   Partly Cloudy
12:16 PM 55.4 °F 50.0 °F 82% 30.22 in 10.0 mi NW 4.6 mph - N/A   Partly Cloudy
12:36 PM 57.2 °F 51.8 °F 82% 30.22 in 10.0 mi NNW 5.8 mph - N/A   Partly Cloudy
12:56 PM 57.2 °F 51.8 °F 82% 30.22 in 10.0 mi North 4.6 mph - N/A   Clear
1:16 PM 57.2 °F 50.0 °F 77% 30.22 in 10.0 mi North 3.5 mph - N/A   Clear
1:36 PM 59.0 °F 51.8 °F 77% 30.21 in 10.0 mi NW 3.5 mph - N/A   Clear
1:56 PM 60.8 °F 53.6 °F 77% 30.22 in 10.0 mi NW 5.8 mph - N/A   Clear
2:16 PM 62.6 °F 53.6 °F 72% 30.22 in 10.0 mi NNW 5.8 mph - N/A   Clear
2:36 PM 62.6 °F 53.6 °F 72% 30.22 in 10.0 mi NW 5.8 mph - N/A   Clear
2:56 PM 62.6 °F 53.6 °F 72% 30.22 in 10.0 mi NNW 5.8 mph - N/A   Clear
3:16 PM 62.6 °F 53.6 °F 72% 30.21 in 10.0 mi NNW 3.5 mph - N/A   Clear
3:36 PM 60.8 °F 53.6 °F 77% 30.21 in 10.0 mi NNW 3.5 mph - N/A   Clear
3:56 PM 62.6 °F 53.6 °F 72% 30.21 in 10.0 mi NW 4.6 mph - N/A   Clear
4:16 PM 60.8 °F 53.6 °F 77% 30.20 in 10.0 mi NNW 4.6 mph - N/A   Clear
4:36 PM 60.8 °F 53.6 °F 77% 30.20 in 10.0 mi NNW 4.6 mph - N/A   Clear
4:56 PM 62.6 °F 53.6 °F 72% 30.19 in 10.0 mi Calm Calm - N/A   Clear
5:16 PM 60.8 °F 53.6 °F 77% 30.19 in 10.0 mi NW 3.5 mph - N/A   Clear
5:36 PM 62.6 °F 53.6 °F 72% 30.19 in 10.0 mi Calm Calm - N/A   Clear
5:56 PM 62.6 °F 53.6 °F 72% 30.19 in 10.0 mi North 3.5 mph - N/A   Clear
6:16 PM 60.8 °F 51.8 °F 72% 30.18 in 10.0 mi NW 3.5 mph - N/A   Clear
6:36 PM 60.8 °F 53.6 °F 77% 30.18 in 10.0 mi Calm Calm - N/A   Clear
6:56 PM 62.6 °F 53.6 °F 72% 30.18 in 10.0 mi Calm Calm - N/A   Clear
7:16 PM 60.8 °F 51.8 °F 72% 30.18 in 10.0 mi Calm Calm - N/A   Clear
7:36 PM 60.8 °F 51.8 °F 72% 30.18 in 10.0 mi NW 3.5 mph - N/A   Clear
7:56 PM 60.8 °F 51.8 °F 72% 30.18 in 10.0 mi NW 3.5 mph - N/A   Clear
8:16 PM 60.8 °F 51.8 °F 72% 30.19 in 10.0 mi Calm Calm - N/A   Clear
8:36 PM 60.8 °F 50.0 °F 68% 30.20 in 10.0 mi Calm Calm - N/A   Clear
8:56 PM 59.0 °F 50.0 °F 72% 30.20 in 10.0 mi Calm Calm - N/A   Clear
9:16 PM 57.2 °F 50.0 °F 77% 30.20 in 10.0 mi Calm Calm - N/A   Clear
9:36 PM 57.2 °F 51.8 °F 82% 30.21 in 10.0 mi Calm Calm - N/A   Clear
9:56 PM 57.2 °F 51.8 °F 82% 30.20 in 10.0 mi SE 3.5 mph - N/A   Clear
10:16 PM 57.2 °F 53.6 °F 88% 30.20 in 10.0 mi SE 4.6 mph - N/A   Clear
10:36 PM 55.4 °F 51.8 °F 88% 30.20 in 10.0 mi ESE 5.8 mph - N/A   Clear
10:56 PM 55.4 °F 51.8 °F 88% 30.20 in 10.0 mi SE 4.6 mph - N/A   Clear
11:16 PM 55.4 °F 51.8 °F 88% 30.21 in 10.0 mi ESE 3.5 mph - N/A   Clear
11:36 PM 53.6 °F 51.8 °F 94% 30.21 in 10.0 mi Calm Calm - N/A   Clear
11:56 PM 53.6 °F 51.8 °F 94% 30.22 in 7.0 mi Calm Calm - N/A   Clear